sensor_id;sensor_type;location;lat;lon;timestamp;temperature;humidity
10149;DHT22;5115;50.920;6.376;2022-08-19T00:00:36;19.40;99.90
10149;DHT22;5115;50.920;6.376;2022-08-19T00:03:03;19.20;99.90
10149;DHT22;5115;50.920;6.376;2022-08-19T00:05:28;19.00;99.90
10149;DHT22;5115;50.920;6.376;2022-08-19T00:07:54;19.10;99.90
10149;DHT22;5115;50.920;6.376;2022-08-19T00:10:20;19.10;99.90
10149;DHT22;5115;50.920;6.376;2022-08-19T00:12:46;19.10;99.90
10149;DHT22;5115;50.920;6.376;2022-08-19T00:15:14;19.20;99.90
10149;DHT22;5115;50.920;6.376;2022-08-19T00:17:42;19.80;99.90
10149;DHT22;5115;50.920;6.376;2022-08-19T00:20:10;19.30;99.90
10149;DHT22;5115;50.920;6.376;2022-08-19T00:22:37;19.30;99.90
10149;DHT22;5115;50.920;6.376;2022-08-19T00:25:04;19.30;99.90
10149;DHT22;5115;50.920;6.376;2022-08-19T00:27:30;19.30;99.90
10149;DHT22;5115;50.920;6.376;2022-08-19T00:29:56;19.30;99.90
10149;DHT22;5115;50.920;6.376;2022-08-19T00:32:21;19.20;99.90
10149;DHT22;5115;50.920;6.376;2022-08-19T00:34:47;18.90;99.90
10149;DHT22;5115;50.920;6.376;2022-08-19T00:37:13;18.70;99.90
10149;DHT22;5115;50.920;6.376;2022-08-19T00:39:38;18.70;99.90
10149;DHT22;5115;50.920;6.376;2022-08-19T00:42:04;18.80;99.90
10149;DHT22;5115;50.920;6.376;2022-08-19T00:44:31;18.80;99.90
10149;DHT22;5115;50.920;6.376;2022-08-19T00:46:58;18.80;99.90
10149;DHT22;5115;50.920;6.376;2022-08-19T00:49:41;18.80;99.90
10149;DHT22;5115;50.920;6.376;2022-08-19T00:52:14;18.90;99.90
10149;DHT22;5115;50.920;6.376;2022-08-19T00:54:40;18.90;99.90
10149;DHT22;5115;50.920;6.376;2022-08-19T00:57:10;19.00;99.90
10149;DHT22;5115;50.920;6.376;2022-08-19T00:59:42;19.00;99.90
10149;DHT22;5115;50.920;6.376;2022-08-19T01:02:09;19.10;99.90
10149;DHT22;5115;50.920;6.376;2022-08-19T01:04:34;18.90;99.90
10149;DHT22;5115;50.920;6.376;2022-08-19T01:07:01;18.60;99.90
10149;DHT22;5115;50.920;6.376;2022-08-19T01:09:28;18.80;99.90
10149;DHT22;5115;50.920;6.376;2022-08-19T01:11:57;18.90;99.90
10149;DHT22;5115;50.920;6.376;2022-08-19T01:14:24;18.70;99.90
10149;DHT22;5115;50.920;6.376;2022-08-19T01:16:51;18.70;99.90
10149;DHT22;5115;50.920;6.376;2022-08-19T01:19:27;18.70;99.90
10149;DHT22;5115;50.920;6.376;2022-08-19T01:24:53;18.60;99.90
10149;DHT22;5115;50.920;6.376;2022-08-19T01:27:19;18.60;99.90
10149;DHT22;5115;50.920;6.376;2022-08-19T01:29:45;18.70;99.90
10149;DHT22;5115;50.920;6.376;2022-08-19T01:32:16;18.70;99.90
10149;DHT22;5115;50.920;6.376;2022-08-19T01:34:42;18.80;99.90
10149;DHT22;5115;50.920;6.376;2022-08-19T01:37:18;18.80;99.90
10149;DHT22;5115;50.920;6.376;2022-08-19T01:39:44;18.80;99.90
10149;DHT22;5115;50.920;6.376;2022-08-19T01:42:09;18.80;99.90
10149;DHT22;5115;50.920;6.376;2022-08-19T01:44:39;18.70;99.90
10149;DHT22;5115;50.920;6.376;2022-08-19T01:47:07;18.60;99.90
10149;DHT22;5115;50.920;6.376;2022-08-19T01:49:34;18.60;99.90
10149;DHT22;5115;50.920;6.376;2022-08-19T01:52:00;18.60;99.90
10149;DHT22;5115;50.920;6.376;2022-08-19T01:54:27;18.60;99.90
10149;DHT22;5115;50.920;6.376;2022-08-19T01:56:59;18.60;99.90
10149;DHT22;5115;50.920;6.376;2022-08-19T01:59:26;18.60;99.90
10149;DHT22;5115;50.920;6.376;2022-08-19T02:01:52;18.60;99.90
10149;DHT22;5115;50.920;6.376;2022-08-19T02:04:18;18.60;99.90
10149;DHT22;5115;50.920;6.376;2022-08-19T02:06:43;18.60;99.90
10149;DHT22;5115;50.920;6.376;2022-08-19T02:09:09;18.60;99.90
10149;DHT22;5115;50.920;6.376;2022-08-19T02:11:36;18.60;99.90
10149;DHT22;5115;50.920;6.376;2022-08-19T02:14:04;18.60;99.90
10149;DHT22;5115;50.920;6.376;2022-08-19T02:16:31;18.70;99.90
10149;DHT22;5115;50.920;6.376;2022-08-19T02:18:58;18.60;99.90
10149;DHT22;5115;50.920;6.376;2022-08-19T02:21:25;18.60;99.90
10149;DHT22;5115;50.920;6.376;2022-08-19T02:23:52;18.60;99.90
10149;DHT22;5115;50.920;6.376;2022-08-19T02:26:17;18.60;99.90
10149;DHT22;5115;50.920;6.376;2022-08-19T02:28:44;18.60;99.90
10149;DHT22;5115;50.920;6.376;2022-08-19T02:31:11;18.50;99.90
10149;DHT22;5115;50.920;6.376;2022-08-19T02:33:37;18.50;99.90
10149;DHT22;5115;50.920;6.376;2022-08-19T02:36:04;18.50;99.90
10149;DHT22;5115;50.920;6.376;2022-08-19T02:38:30;18.50;99.90
10149;DHT22;5115;50.920;6.376;2022-08-19T02:41:01;18.60;99.90
10149;DHT22;5115;50.920;6.376;2022-08-19T02:43:29;18.60;99.90
10149;DHT22;5115;50.920;6.376;2022-08-19T02:45:55;18.70;99.90
10149;DHT22;5115;50.920;6.376;2022-08-19T02:48:23;18.80;99.90
10149;DHT22;5115;50.920;6.376;2022-08-19T02:50:51;18.80;99.90
10149;DHT22;5115;50.920;6.376;2022-08-19T02:53:22;18.90;99.90
10149;DHT22;5115;50.920;6.376;2022-08-19T02:55:49;18.20;99.90
10149;DHT22;5115;50.920;6.376;2022-08-19T02:58:15;19.00;99.90
10149;DHT22;5115;50.920;6.376;2022-08-19T03:00:51;19.10;99.90
10149;DHT22;5115;50.920;6.376;2022-08-19T03:03:17;19.20;99.90
10149;DHT22;5115;50.920;6.376;2022-08-19T03:05:43;19.10;99.90
10149;DHT22;5115;50.920;6.376;2022-08-19T03:08:10;19.20;99.90
10149;DHT22;5115;50.920;6.376;2022-08-19T03:10:45;19.10;99.90
10149;DHT22;5115;50.920;6.376;2022-08-19T03:13:16;19.10;99.90
10149;DHT22;5115;50.920;6.376;2022-08-19T03:15:44;19.10;99.90
10149;DHT22;5115;50.920;6.376;2022-08-19T03:18:10;19.10;99.90
10149;DHT22;5115;50.920;6.376;2022-08-19T03:20:47;19.10;99.90
10149;DHT22;5115;50.920;6.376;2022-08-19T03:23:13;19.10;99.90
10149;DHT22;5115;50.920;6.376;2022-08-19T03:25:45;19.20;99.90
10149;DHT22;5115;50.920;6.376;2022-08-19T03:28:12;19.20;99.90
10149;DHT22;5115;50.920;6.376;2022-08-19T03:30:39;19.20;99.90
10149;DHT22;5115;50.920;6.376;2022-08-19T03:33:06;19.20;99.90
10149;DHT22;5115;50.920;6.376;2022-08-19T03:35:32;19.20;99.90
10149;DHT22;5115;50.920;6.376;2022-08-19T03:37:59;19.10;99.90
10149;DHT22;5115;50.920;6.376;2022-08-19T03:40:25;19.20;99.90
10149;DHT22;5115;50.920;6.376;2022-08-19T03:42:50;19.10;99.90
10149;DHT22;5115;50.920;6.376;2022-08-19T03:45:16;19.10;99.90
10149;DHT22;5115;50.920;6.376;2022-08-19T03:47:42;19.10;99.90
10149;DHT22;5115;50.920;6.376;2022-08-19T03:50:07;19.00;99.90
10149;DHT22;5115;50.920;6.376;2022-08-19T03:52:34;19.00;99.90
10149;DHT22;5115;50.920;6.376;2022-08-19T03:55:01;19.10;99.90
10149;DHT22;5115;50.920;6.376;2022-08-19T03:57:27;19.00;99.90
10149;DHT22;5115;50.920;6.376;2022-08-19T03:59:53;19.00;99.90
10149;DHT22;5115;50.920;6.376;2022-08-19T04:02:18;19.00;99.90
10149;DHT22;5115;50.920;6.376;2022-08-19T04:04:44;19.00;99.90
10149;DHT22;5115;50.920;6.376;2022-08-19T04:07:12;19.00;99.90
10149;DHT22;5115;50.920;6.376;2022-08-19T04:09:40;19.00;99.90
10149;DHT22;5115;50.920;6.376;2022-08-19T04:12:07;19.00;99.90
10149;DHT22;5115;50.920;6.376;2022-08-19T04:14:34;18.90;99.90
10149;DHT22;5115;50.920;6.376;2022-08-19T04:17:00;19.00;99.90
10149;DHT22;5115;50.920;6.376;2022-08-19T04:19:29;18.90;99.90
10149;DHT22;5115;50.920;6.376;2022-08-19T04:21:55;18.90;99.90
10149;DHT22;5115;50.920;6.376;2022-08-19T04:24:21;19.10;99.90
10149;DHT22;5115;50.920;6.376;2022-08-19T04:26:47;19.00;99.90
10149;DHT22;5115;50.920;6.376;2022-08-19T04:29:18;19.00;99.90
10149;DHT22;5115;50.920;6.376;2022-08-19T04:31:45;19.00;99.90
10149;DHT22;5115;50.920;6.376;2022-08-19T04:34:13;19.00;99.90
10149;DHT22;5115;50.920;6.376;2022-08-19T04:36:40;19.60;99.90
10149;DHT22;5115;50.920;6.376;2022-08-19T04:39:13;19.10;99.90
10149;DHT22;5115;50.920;6.376;2022-08-19T04:41:39;19.10;99.90
10149;DHT22;5115;50.920;6.376;2022-08-19T04:44:24;19.10;99.90
10149;DHT22;5115;50.920;6.376;2022-08-19T04:46:51;19.10;99.90
10149;DHT22;5115;50.920;6.376;2022-08-19T04:49:19;19.00;99.90
10149;DHT22;5115;50.920;6.376;2022-08-19T04:51:48;19.10;99.90
10149;DHT22;5115;50.920;6.376;2022-08-19T04:54:16;19.20;99.90
10149;DHT22;5115;50.920;6.376;2022-08-19T04:56:42;19.30;99.90
10149;DHT22;5115;50.920;6.376;2022-08-19T04:59:09;19.30;99.90
10149;DHT22;5115;50.920;6.376;2022-08-19T05:01:35;19.20;99.90
10149;DHT22;5115;50.920;6.376;2022-08-19T05:04:03;19.30;99.90
10149;DHT22;5115;50.920;6.376;2022-08-19T05:06:31;19.30;99.90
10149;DHT22;5115;50.920;6.376;2022-08-19T05:08:58;19.30;99.90
10149;DHT22;5115;50.920;6.376;2022-08-19T05:11:27;19.30;99.90
10149;DHT22;5115;50.920;6.376;2022-08-19T05:13:53;19.50;99.90
10149;DHT22;5115;50.920;6.376;2022-08-19T05:16:21;19.50;99.90
10149;DHT22;5115;50.920;6.376;2022-08-19T05:18:47;19.60;99.90
10149;DHT22;5115;50.920;6.376;2022-08-19T05:21:31;19.70;99.90
10149;DHT22;5115;50.920;6.376;2022-08-19T05:24:16;19.70;99.90
10149;DHT22;5115;50.920;6.376;2022-08-19T05:26:45;19.70;99.90
10149;DHT22;5115;50.920;6.376;2022-08-19T05:29:16;19.80;99.90
10149;DHT22;5115;50.920;6.376;2022-08-19T05:31:43;19.80;99.90
10149;DHT22;5115;50.920;6.376;2022-08-19T05:34:09;19.80;99.90
10149;DHT22;5115;50.920;6.376;2022-08-19T05:36:38;20.00;99.90
10149;DHT22;5115;50.920;6.376;2022-08-19T05:39:10;20.10;99.90
10149;DHT22;5115;50.920;6.376;2022-08-19T05:41:37;20.10;99.90
10149;DHT22;5115;50.920;6.376;2022-08-19T05:44:05;20.30;99.90
10149;DHT22;5115;50.920;6.376;2022-08-19T05:46:34;20.60;99.90
10149;DHT22;5115;50.920;6.376;2022-08-19T05:49:00;20.60;99.90
10149;DHT22;5115;50.920;6.376;2022-08-19T05:51:26;21.00;99.90
10149;DHT22;5115;50.920;6.376;2022-08-19T05:53:52;20.70;99.90
10149;DHT22;5115;50.920;6.376;2022-08-19T05:56:18;20.70;99.90
10149;DHT22;5115;50.920;6.376;2022-08-19T05:58:44;20.70;99.90
10149;DHT22;5115;50.920;6.376;2022-08-19T06:01:13;20.70;99.90
10149;DHT22;5115;50.920;6.376;2022-08-19T06:03:39;20.80;99.90
10149;DHT22;5115;50.920;6.376;2022-08-19T06:06:06;20.70;99.90
10149;DHT22;5115;50.920;6.376;2022-08-19T06:08:33;20.70;99.90
10149;DHT22;5115;50.920;6.376;2022-08-19T06:11:15;20.70;99.90
10149;DHT22;5115;50.920;6.376;2022-08-19T06:13:42;20.70;99.90
10149;DHT22;5115;50.920;6.376;2022-08-19T06:16:07;20.80;99.90
10149;DHT22;5115;50.920;6.376;2022-08-19T06:18:33;20.70;99.90
10149;DHT22;5115;50.920;6.376;2022-08-19T06:20:59;20.90;99.90
10149;DHT22;5115;50.920;6.376;2022-08-19T06:23:24;21.10;99.90
10149;DHT22;5115;50.920;6.376;2022-08-19T06:25:51;21.40;99.90
10149;DHT22;5115;50.920;6.376;2022-08-19T06:28:16;21.80;99.90
10149;DHT22;5115;50.920;6.376;2022-08-19T06:30:42;21.70;99.90
10149;DHT22;5115;50.920;6.376;2022-08-19T06:33:07;21.90;99.90
10149;DHT22;5115;50.920;6.376;2022-08-19T06:35:33;22.10;99.90
10149;DHT22;5115;50.920;6.376;2022-08-19T06:38:03;22.40;99.90
10149;DHT22;5115;50.920;6.376;2022-08-19T06:40:30;22.80;99.90
10149;DHT22;5115;50.920;6.376;2022-08-19T06:42:56;23.30;99.90
10149;DHT22;5115;50.920;6.376;2022-08-19T06:45:22;23.40;99.90
10149;DHT22;5115;50.920;6.376;2022-08-19T06:47:48;23.60;99.90
10149;DHT22;5115;50.920;6.376;2022-08-19T06:50:14;23.70;99.90
10149;DHT22;5115;50.920;6.376;2022-08-19T06:52:39;23.90;99.90
10149;DHT22;5115;50.920;6.376;2022-08-19T06:55:05;23.80;99.90
10149;DHT22;5115;50.920;6.376;2022-08-19T06:57:31;23.90;99.90
10149;DHT22;5115;50.920;6.376;2022-08-19T06:59:58;24.00;99.90
10149;DHT22;5115;50.920;6.376;2022-08-19T07:02:25;24.00;99.90
10149;DHT22;5115;50.920;6.376;2022-08-19T07:04:52;23.80;99.90
10149;DHT22;5115;50.920;6.376;2022-08-19T07:07:19;23.70;99.90
10149;DHT22;5115;50.920;6.376;2022-08-19T07:09:45;23.90;99.90
10149;DHT22;5115;50.920;6.376;2022-08-19T07:12:13;23.90;99.90
10149;DHT22;5115;50.920;6.376;2022-08-19T07:14:41;23.50;99.90
10149;DHT22;5115;50.920;6.376;2022-08-19T07:17:10;23.90;99.90
10149;DHT22;5115;50.920;6.376;2022-08-19T07:19:37;23.80;99.90
10149;DHT22;5115;50.920;6.376;2022-08-19T07:22:06;23.90;99.90
10149;DHT22;5115;50.920;6.376;2022-08-19T07:24:32;23.90;99.90
10149;DHT22;5115;50.920;6.376;2022-08-19T07:27:00;23.70;99.90
10149;DHT22;5115;50.920;6.376;2022-08-19T07:29:29;23.70;99.90
10149;DHT22;5115;50.920;6.376;2022-08-19T07:31:56;24.00;99.90
10149;DHT22;5115;50.920;6.376;2022-08-19T07:34:22;24.20;99.90
10149;DHT22;5115;50.920;6.376;2022-08-19T07:36:48;24.60;99.90
10149;DHT22;5115;50.920;6.376;2022-08-19T07:39:18;24.90;99.90
10149;DHT22;5115;50.920;6.376;2022-08-19T07:41:45;25.20;99.90
10149;DHT22;5115;50.920;6.376;2022-08-19T07:44:11;25.60;99.90
10149;DHT22;5115;50.920;6.376;2022-08-19T07:46:40;25.70;99.90
10149;DHT22;5115;50.920;6.376;2022-08-19T07:49:07;26.00;99.90
10149;DHT22;5115;50.920;6.376;2022-08-19T07:51:33;26.30;99.90
10149;DHT22;5115;50.920;6.376;2022-08-19T07:53:59;26.50;99.90
10149;DHT22;5115;50.920;6.376;2022-08-19T07:56:25;27.30;99.90
10149;DHT22;5115;50.920;6.376;2022-08-19T07:58:51;28.00;99.90
10149;DHT22;5115;50.920;6.376;2022-08-19T08:01:23;28.00;99.90
10149;DHT22;5115;50.920;6.376;2022-08-19T08:03:50;28.50;99.90
10149;DHT22;5115;50.920;6.376;2022-08-19T08:06:35;29.10;99.90
10149;DHT22;5115;50.920;6.376;2022-08-19T08:09:23;29.90;99.90
10149;DHT22;5115;50.920;6.376;2022-08-19T08:11:55;30.00;99.90
10149;DHT22;5115;50.920;6.376;2022-08-19T08:14:34;30.10;99.90
10149;DHT22;5115;50.920;6.376;2022-08-19T08:17:02;30.80;99.90
10149;DHT22;5115;50.920;6.376;2022-08-19T08:19:28;30.90;99.90
10149;DHT22;5115;50.920;6.376;2022-08-19T08:21:57;30.90;99.90
10149;DHT22;5115;50.920;6.376;2022-08-19T08:24:23;30.80;99.90
10149;DHT22;5115;50.920;6.376;2022-08-19T08:26:49;30.60;99.90
10149;DHT22;5115;50.920;6.376;2022-08-19T08:29:15;30.60;99.90
10149;DHT22;5115;50.920;6.376;2022-08-19T08:31:43;30.80;99.90
10149;DHT22;5115;50.920;6.376;2022-08-19T08:34:10;31.00;99.90
10149;DHT22;5115;50.920;6.376;2022-08-19T08:36:42;30.70;99.90
10149;DHT22;5115;50.920;6.376;2022-08-19T08:39:13;31.00;99.90
10149;DHT22;5115;50.920;6.376;2022-08-19T08:44:37;31.00;99.90
10149;DHT22;5115;50.920;6.376;2022-08-19T08:47:15;30.80;99.90
10149;DHT22;5115;50.920;6.376;2022-08-19T08:50:03;30.50;99.90
10149;DHT22;5115;50.920;6.376;2022-08-19T08:52:39;30.50;99.90
10149;DHT22;5115;50.920;6.376;2022-08-19T08:55:11;30.60;99.90
10149;DHT22;5115;50.920;6.376;2022-08-19T09:00:26;30.00;99.90
10149;DHT22;5115;50.920;6.376;2022-08-19T09:02:54;29.60;99.90
10149;DHT22;5115;50.920;6.376;2022-08-19T09:05:21;28.90;99.90
10149;DHT22;5115;50.920;6.376;2022-08-19T09:14:18;28.30;99.90
10149;DHT22;5115;50.920;6.376;2022-08-19T09:16:35;28.70;99.90
10149;DHT22;5115;50.920;6.376;2022-08-19T09:19:28;29.10;99.90
10149;DHT22;5115;50.920;6.376;2022-08-19T09:21:53;29.40;99.90
10149;DHT22;5115;50.920;6.376;2022-08-19T09:24:22;29.90;99.90
10149;DHT22;5115;50.920;6.376;2022-08-19T09:26:47;29.90;99.90
10149;DHT22;5115;50.920;6.376;2022-08-19T09:29:13;29.80;99.90
10149;DHT22;5115;50.920;6.376;2022-08-19T09:31:39;30.00;99.90
10149;DHT22;5115;50.920;6.376;2022-08-19T09:34:04;29.50;99.90
10149;DHT22;5115;50.920;6.376;2022-08-19T09:36:31;29.70;99.90
10149;DHT22;5115;50.920;6.376;2022-08-19T09:39:03;29.70;99.90
10149;DHT22;5115;50.920;6.376;2022-08-19T09:41:29;29.80;99.90
10149;DHT22;5115;50.920;6.376;2022-08-19T09:43:57;30.00;99.90
10149;DHT22;5115;50.920;6.376;2022-08-19T09:46:25;29.70;99.90
10149;DHT22;5115;50.920;6.376;2022-08-19T09:48:52;30.00;99.90
10149;DHT22;5115;50.920;6.376;2022-08-19T09:51:21;30.10;99.90
10149;DHT22;5115;50.920;6.376;2022-08-19T09:53:48;29.50;99.90
10149;DHT22;5115;50.920;6.376;2022-08-19T09:56:17;29.50;99.90
10149;DHT22;5115;50.920;6.376;2022-08-19T09:58:43;29.10;99.90
10149;DHT22;5115;50.920;6.376;2022-08-19T10:01:09;28.90;99.90
10149;DHT22;5115;50.920;6.376;2022-08-19T10:03:40;28.60;99.90
10149;DHT22;5115;50.920;6.376;2022-08-19T10:06:05;28.70;99.90
10149;DHT22;5115;50.920;6.376;2022-08-19T10:08:34;28.80;99.90
10149;DHT22;5115;50.920;6.376;2022-08-19T10:11:02;28.40;99.90
10149;DHT22;5115;50.920;6.376;2022-08-19T10:13:30;28.30;99.90
10149;DHT22;5115;50.920;6.376;2022-08-19T10:16:07;28.50;99.90
10149;DHT22;5115;50.920;6.376;2022-08-19T10:18:34;28.70;99.90
10149;DHT22;5115;50.920;6.376;2022-08-19T10:21:09;28.80;99.90
10149;DHT22;5115;50.920;6.376;2022-08-19T10:23:40;29.20;99.90
10149;DHT22;5115;50.920;6.376;2022-08-19T10:26:07;29.30;99.90
10149;DHT22;5115;50.920;6.376;2022-08-19T10:28:34;29.70;99.90
10149;DHT22;5115;50.920;6.376;2022-08-19T10:31:11;30.00;99.90
10149;DHT22;5115;50.920;6.376;2022-08-19T10:33:38;30.40;99.90
10149;DHT22;5115;50.920;6.376;2022-08-19T10:36:11;30.40;99.90
10149;DHT22;5115;50.920;6.376;2022-08-19T10:38:37;30.50;99.90
10149;DHT22;5115;50.920;6.376;2022-08-19T10:41:11;30.30;99.90
10149;DHT22;5115;50.920;6.376;2022-08-19T10:43:38;30.00;99.90
10149;DHT22;5115;50.920;6.376;2022-08-19T10:46:06;29.80;99.90
10149;DHT22;5115;50.920;6.376;2022-08-19T10:48:32;29.60;99.90
10149;DHT22;5115;50.920;6.376;2022-08-19T10:50:58;29.20;99.90
10149;DHT22;5115;50.920;6.376;2022-08-19T10:53:43;29.10;99.90
10149;DHT22;5115;50.920;6.376;2022-08-19T10:56:08;28.90;99.90
10149;DHT22;5115;50.920;6.376;2022-08-19T10:58:52;28.90;99.90
10149;DHT22;5115;50.920;6.376;2022-08-19T11:01:18;28.90;99.90
10149;DHT22;5115;50.920;6.376;2022-08-19T11:03:44;28.90;99.90
10149;DHT22;5115;50.920;6.376;2022-08-19T11:06:11;29.10;99.90
10149;DHT22;5115;50.920;6.376;2022-08-19T11:08:36;29.20;99.90
10149;DHT22;5115;50.920;6.376;2022-08-19T11:11:07;29.50;99.90
10149;DHT22;5115;50.920;6.376;2022-08-19T11:13:37;29.50;99.90
10149;DHT22;5115;50.920;6.376;2022-08-19T11:16:06;29.60;99.90
10149;DHT22;5115;50.920;6.376;2022-08-19T11:18:34;29.80;99.90
10149;DHT22;5115;50.920;6.376;2022-08-19T11:21:12;29.90;99.90
10149;DHT22;5115;50.920;6.376;2022-08-19T11:23:38;30.40;99.90
10149;DHT22;5115;50.920;6.376;2022-08-19T11:26:04;30.50;99.90
10149;DHT22;5115;50.920;6.376;2022-08-19T11:28:30;30.70;99.90
10149;DHT22;5115;50.920;6.376;2022-08-19T11:30:56;29.80;99.90
10149;DHT22;5115;50.920;6.376;2022-08-19T11:33:21;30.00;99.90
10149;DHT22;5115;50.920;6.376;2022-08-19T11:35:47;29.70;99.90
10149;DHT22;5115;50.920;6.376;2022-08-19T11:38:12;30.00;99.90
10149;DHT22;5115;50.920;6.376;2022-08-19T11:40:39;30.00;99.90
10149;DHT22;5115;50.920;6.376;2022-08-19T11:43:07;29.90;99.90
10149;DHT22;5115;50.920;6.376;2022-08-19T11:45:33;29.40;99.90
10149;DHT22;5115;50.920;6.376;2022-08-19T11:47:59;29.50;99.90
10149;DHT22;5115;50.920;6.376;2022-08-19T11:50:25;29.40;99.90
10149;DHT22;5115;50.920;6.376;2022-08-19T11:52:54;29.10;99.90
10149;DHT22;5115;50.920;6.376;2022-08-19T11:55:19;29.10;99.90
10149;DHT22;5115;50.920;6.376;2022-08-19T11:57:45;28.70;99.90
10149;DHT22;5115;50.920;6.376;2022-08-19T12:00:12;29.10;99.90
10149;DHT22;5115;50.920;6.376;2022-08-19T12:02:38;29.10;99.90
10149;DHT22;5115;50.920;6.376;2022-08-19T12:05:04;29.30;99.90
10149;DHT22;5115;50.920;6.376;2022-08-19T12:07:31;29.30;99.90
10149;DHT22;5115;50.920;6.376;2022-08-19T12:09:59;29.30;99.90
10149;DHT22;5115;50.920;6.376;2022-08-19T12:12:25;29.10;99.90
10149;DHT22;5115;50.920;6.376;2022-08-19T12:14:52;29.30;99.90
10149;DHT22;5115;50.920;6.376;2022-08-19T12:17:23;29.30;99.90
10149;DHT22;5115;50.920;6.376;2022-08-19T12:19:49;29.10;99.90
10149;DHT22;5115;50.920;6.376;2022-08-19T12:22:14;29.10;99.90
10149;DHT22;5115;50.920;6.376;2022-08-19T12:24:40;29.10;99.90
10149;DHT22;5115;50.920;6.376;2022-08-19T12:27:05;29.00;99.90
10149;DHT22;5115;50.920;6.376;2022-08-19T12:29:31;28.80;99.90
10149;DHT22;5115;50.920;6.376;2022-08-19T12:31:58;28.70;99.90
10149;DHT22;5115;50.920;6.376;2022-08-19T12:34:30;28.70;99.90
10149;DHT22;5115;50.920;6.376;2022-08-19T12:36:58;28.60;99.90
10149;DHT22;5115;50.920;6.376;2022-08-19T12:39:24;28.50;99.90
10149;DHT22;5115;50.920;6.376;2022-08-19T12:41:50;28.40;99.90
10149;DHT22;5115;50.920;6.376;2022-08-19T12:44:15;28.20;99.90
10149;DHT22;5115;50.920;6.376;2022-08-19T12:46:41;28.50;99.90
10149;DHT22;5115;50.920;6.376;2022-08-19T12:49:07;28.70;99.90
10149;DHT22;5115;50.920;6.376;2022-08-19T12:51:33;28.60;99.90
10149;DHT22;5115;50.920;6.376;2022-08-19T12:53:58;28.60;99.90
10149;DHT22;5115;50.920;6.376;2022-08-19T12:56:24;28.60;99.90
10149;DHT22;5115;50.920;6.376;2022-08-19T12:58:50;28.50;99.90
10149;DHT22;5115;50.920;6.376;2022-08-19T13:01:16;28.60;99.90
10149;DHT22;5115;50.920;6.376;2022-08-19T13:03:44;28.70;99.90
10149;DHT22;5115;50.920;6.376;2022-08-19T13:06:10;28.70;99.90
10149;DHT22;5115;50.920;6.376;2022-08-19T13:08:36;28.50;99.90
10149;DHT22;5115;50.920;6.376;2022-08-19T13:11:19;28.40;99.90
10149;DHT22;5115;50.920;6.376;2022-08-19T13:13:48;28.30;99.90
10149;DHT22;5115;50.920;6.376;2022-08-19T13:16:14;28.40;99.90
10149;DHT22;5115;50.920;6.376;2022-08-19T13:18:41;28.70;99.90
10149;DHT22;5115;50.920;6.376;2022-08-19T13:21:09;28.60;99.90
10149;DHT22;5115;50.920;6.376;2022-08-19T13:23:39;28.40;99.90
10149;DHT22;5115;50.920;6.376;2022-08-19T13:26:06;28.30;99.90
10149;DHT22;5115;50.920;6.376;2022-08-19T13:28:34;28.10;99.90
10149;DHT22;5115;50.920;6.376;2022-08-19T13:31:34;28.20;99.90
10149;DHT22;5115;50.920;6.376;2022-08-19T13:34:25;28.40;99.90
10149;DHT22;5115;50.920;6.376;2022-08-19T13:36:53;28.40;99.90
10149;DHT22;5115;50.920;6.376;2022-08-19T13:39:18;28.30;99.90
10149;DHT22;5115;50.920;6.376;2022-08-19T13:41:46;28.10;99.90
10149;DHT22;5115;50.920;6.376;2022-08-19T13:44:14;28.10;99.90
10149;DHT22;5115;50.920;6.376;2022-08-19T13:46:40;28.20;99.90
10149;DHT22;5115;50.920;6.376;2022-08-19T13:49:10;28.00;99.90
10149;DHT22;5115;50.920;6.376;2022-08-19T13:51:38;27.90;99.90
10149;DHT22;5115;50.920;6.376;2022-08-19T13:54:05;28.10;99.90
10149;DHT22;5115;50.920;6.376;2022-08-19T13:56:31;28.00;99.90
10149;DHT22;5115;50.920;6.376;2022-08-19T13:58:56;28.00;99.90
10149;DHT22;5115;50.920;6.376;2022-08-19T14:01:23;27.90;99.90
10149;DHT22;5115;50.920;6.376;2022-08-19T14:03:49;27.80;99.90
10149;DHT22;5115;50.920;6.376;2022-08-19T14:06:15;27.90;99.90
10149;DHT22;5115;50.920;6.376;2022-08-19T14:08:42;27.80;99.90
10149;DHT22;5115;50.920;6.376;2022-08-19T14:11:08;27.80;99.90
10149;DHT22;5115;50.920;6.376;2022-08-19T14:13:33;28.00;99.90
10149;DHT22;5115;50.920;6.376;2022-08-19T14:15:59;28.10;99.90
10149;DHT22;5115;50.920;6.376;2022-08-19T14:18:25;28.20;99.90
10149;DHT22;5115;50.920;6.376;2022-08-19T14:20:51;28.10;99.90
10149;DHT22;5115;50.920;6.376;2022-08-19T14:23:17;28.00;99.90
10149;DHT22;5115;50.920;6.376;2022-08-19T14:25:43;27.90;99.90
10149;DHT22;5115;50.920;6.376;2022-08-19T14:28:08;27.90;99.90
10149;DHT22;5115;50.920;6.376;2022-08-19T14:30:36;27.70;99.90
10149;DHT22;5115;50.920;6.376;2022-08-19T14:33:03;27.60;99.90
10149;DHT22;5115;50.920;6.376;2022-08-19T14:35:31;27.70;99.90
10149;DHT22;5115;50.920;6.376;2022-08-19T14:38:01;28.00;99.90
10149;DHT22;5115;50.920;6.376;2022-08-19T14:40:29;28.00;99.90
10149;DHT22;5115;50.920;6.376;2022-08-19T14:42:56;28.00;99.90
10149;DHT22;5115;50.920;6.376;2022-08-19T14:45:25;28.10;99.90
10149;DHT22;5115;50.920;6.376;2022-08-19T14:47:51;28.10;99.90
10149;DHT22;5115;50.920;6.376;2022-08-19T14:50:17;28.00;99.90
10149;DHT22;5115;50.920;6.376;2022-08-19T14:52:42;28.10;99.90
10149;DHT22;5115;50.920;6.376;2022-08-19T14:55:08;28.10;99.90
10149;DHT22;5115;50.920;6.376;2022-08-19T14:57:34;28.20;99.90
10149;DHT22;5115;50.920;6.376;2022-08-19T14:59:59;28.20;99.90
10149;DHT22;5115;50.920;6.376;2022-08-19T15:02:25;28.20;99.90
10149;DHT22;5115;50.920;6.376;2022-08-19T15:04:51;27.90;99.90
10149;DHT22;5115;50.920;6.376;2022-08-19T15:07:17;27.90;99.90
10149;DHT22;5115;50.920;6.376;2022-08-19T15:09:43;27.80;99.90
10149;DHT22;5115;50.920;6.376;2022-08-19T15:12:08;28.00;99.90
10149;DHT22;5115;50.920;6.376;2022-08-19T15:14:36;27.90;99.90
10149;DHT22;5115;50.920;6.376;2022-08-19T15:17:04;27.60;99.90
10149;DHT22;5115;50.920;6.376;2022-08-19T15:19:31;27.90;99.90
10149;DHT22;5115;50.920;6.376;2022-08-19T15:21:58;28.00;99.90
10149;DHT22;5115;50.920;6.376;2022-08-19T15:24:24;28.00;99.90
10149;DHT22;5115;50.920;6.376;2022-08-19T15:26:52;27.90;99.90
10149;DHT22;5115;50.920;6.376;2022-08-19T15:29:17;27.80;99.90
10149;DHT22;5115;50.920;6.376;2022-08-19T15:31:43;27.60;99.90
10149;DHT22;5115;50.920;6.376;2022-08-19T15:34:10;27.70;99.90
10149;DHT22;5115;50.920;6.376;2022-08-19T15:36:36;27.60;99.90
10149;DHT22;5115;50.920;6.376;2022-08-19T15:39:03;27.60;99.90
10149;DHT22;5115;50.920;6.376;2022-08-19T15:41:30;27.40;99.90
10149;DHT22;5115;50.920;6.376;2022-08-19T15:43:59;27.40;99.90
10149;DHT22;5115;50.920;6.376;2022-08-19T15:46:27;27.50;99.90
10149;DHT22;5115;50.920;6.376;2022-08-19T15:48:54;27.30;99.90
10149;DHT22;5115;50.920;6.376;2022-08-19T15:51:20;27.30;99.90
10149;DHT22;5115;50.920;6.376;2022-08-19T15:53:47;27.30;99.90
10149;DHT22;5115;50.920;6.376;2022-08-19T15:56:13;27.30;99.90
10149;DHT22;5115;50.920;6.376;2022-08-19T15:58:39;27.40;99.90
10149;DHT22;5115;50.920;6.376;2022-08-19T16:01:23;27.50;99.90
10149;DHT22;5115;50.920;6.376;2022-08-19T16:04:13;27.40;99.90